Time;durP1;ratioP1;P1;durP2;ratioP2;P2;SDS_P1;SDS_P2;PMS_P1;PMS_P2;Temp;Humidity;BMP_temperature;BMP_pressure;BME280_temperature;BME280_humidity;BME280_pressure;Samples;Min_cycle;Max_cycle;Signal;HPM_P1;HPM_P2
2022/08/05 00:01:21;;;;;;;;;;;24.20;55.30;;;;;;5047179;27;87303;-43
2022/08/05 00:03:47;;;;;;;;;;;24.20;55.30;;;;;;5044825;28;87119;-44
2022/08/05 00:06:13;;;;;;;;;;;24.20;55.30;;;;;;5044828;27;88106;-43
2022/08/05 00:08:38;;;;;;;;;;;24.20;55.30;;;;;;5044525;28;88028;-43
2022/08/05 00:11:08;;;;;;;;;;;24.20;55.30;;;;;;5045432;28;86345;-44
2022/08/05 00:13:34;;;;;;;;;;;24.20;55.20;;;;;;5044604;27;87001;-43
2022/08/05 00:16:00;;;;;;;;;;;24.20;55.30;;;;;;5044305;28;87945;-43
2022/08/05 00:18:25;;;;;;;;;;;24.10;55.20;;;;;;5043979;28;88072;-44
2022/08/05 00:20:51;;;;;;;;;;;24.10;55.90;;;;;;5044840;27;88338;-44
2022/08/05 00:23:17;;;;;;;;;;;24.10;55.20;;;;;;5047329;28;88017;-45
2022/08/05 00:25:42;;;;;;;;;;;24.10;55.20;;;;;;5044591;28;87717;-45
2022/08/05 00:28:08;;;;;;;;;;;24.00;55.20;;;;;;5044506;28;88016;-43
2022/08/05 00:30:33;;;;;;;;;;;24.10;55.20;;;;;;5044226;28;87140;-45
2022/08/05 00:32:59;;;;;;;;;;;24.00;55.20;;;;;;5044479;28;87298;-45
2022/08/05 00:35:24;;;;;;;;;;;24.00;55.20;;;;;;5044719;28;87315;-44
2022/08/05 00:37:50;;;;;;;;;;;24.00;55.20;;;;;;5044476;28;87014;-43
2022/08/05 00:40:16;;;;;;;;;;;24.00;55.20;;;;;;5044448;28;87343;-44
2022/08/05 00:42:41;;;;;;;;;;;24.00;55.20;;;;;;5043598;28;89052;-42
2022/08/05 00:45:07;;;;;;;;;;;24.00;55.20;;;;;;5046411;27;87111;-43
2022/08/05 00:47:33;;;;;;;;;;;24.00;55.20;;;;;;5043553;28;90239;-44
2022/08/05 00:49:58;;;;;;;;;;;24.00;55.20;;;;;;5044433;28;87032;-43
2022/08/05 00:52:24;;;;;;;;;;;24.00;55.20;;;;;;5044090;28;88937;-43
2022/08/05 00:54:49;;;;;;;;;;;23.90;55.20;;;;;;5043983;28;88029;-44
2022/08/05 00:57:15;;;;;;;;;;;23.90;55.10;;;;;;5043995;28;87167;-43
2022/08/05 00:59:40;;;;;;;;;;;23.90;55.20;;;;;;5044300;27;87431;-44
2022/08/05 01:02:06;;;;;;;;;;;23.90;55.20;;;;;;5043563;28;88161;-43
2022/08/05 01:04:31;;;;;;;;;;;23.90;55.20;;;;;;5043944;28;87170;-43
2022/08/05 01:06:57;;;;;;;;;;;23.90;55.10;;;;;;5046115;28;87931;-43
2022/08/05 01:09:23;;;;;;;;;;;23.80;55.20;;;;;;5044088;28;86973;-43
2022/08/05 01:11:50;;;;;;;;;;;23.80;55.20;;;;;;5044112;28;87291;-43
2022/08/05 01:14:19;;;;;;;;;;;23.80;55.20;;;;;;5043213;28;88252;-44
2022/08/05 01:16:44;;;;;;;;;;;23.80;55.20;;;;;;5043860;28;86933;-44
2022/08/05 01:19:28;;;;;;;;;;;23.80;55.20;;;;;;5042493;28;90682;-43
2022/08/05 01:22:12;;;;;;;;;;;23.80;55.20;;;;;;5043478;28;88017;-43
2022/08/05 01:24:49;;;;;;;;;;;23.70;55.20;;;;;;5044150;28;86280;-44
2022/08/05 01:27:33;;;;;;;;;;;23.70;55.20;;;;;;5043833;28;87059;-43
2022/08/05 01:30:01;;;;;;;;;;;23.70;55.20;;;;;;5046320;28;88098;-43
2022/08/05 01:32:30;;;;;;;;;;;23.70;55.20;;;;;;5041494;28;88396;-44
2022/08/05 01:34:57;;;;;;;;;;;23.70;55.20;;;;;;5043069;28;88176;-43
2022/08/05 01:37:25;;;;;;;;;;;23.60;55.10;;;;;;5043408;28;87010;-44
2022/08/05 01:39:53;;;;;;;;;;;23.60;55.20;;;;;;5043638;28;87487;-43
2022/08/05 01:42:19;;;;;;;;;;;23.60;55.10;;;;;;5043164;28;88009;-43
2022/08/05 01:44:46;;;;;;;;;;;23.60;55.20;;;;;;5043515;28;87030;-43
2022/08/05 01:47:13;;;;;;;;;;;23.60;55.10;;;;;;5043419;27;87411;-43
2022/08/05 01:49:40;;;;;;;;;;;23.60;55.20;;;;;;5043254;28;87209;-43
2022/08/05 01:52:06;;;;;;;;;;;23.60;55.20;;;;;;5045929;28;87169;-44
2022/08/05 01:54:36;;;;;;;;;;;23.50;55.20;;;;;;5042821;28;88324;-44
2022/08/05 01:57:03;;;;;;;;;;;23.50;55.20;;;;;;5041283;28;88040;-44
2022/08/05 01:59:29;;;;;;;;;;;23.50;55.20;;;;;;5043133;27;88382;-43
2022/08/05 02:01:56;;;;;;;;;;;23.50;55.20;;;;;;5042307;28;89726;-43
2022/08/05 02:04:22;;;;;;;;;;;23.50;55.20;;;;;;5043229;28;88200;-44
2022/08/05 02:06:48;;;;;;;;;;;23.50;55.20;;;;;;5042876;27;87431;-43
2022/08/05 02:09:14;;;;;;;;;;;23.50;55.20;;;;;;5042865;28;88201;-43
2022/08/05 02:11:42;;;;;;;;;;;23.50;55.20;;;;;;5046126;28;87084;-43
2022/08/05 02:14:11;;;;;;;;;;;23.40;55.20;;;;;;5043188;28;87248;-43
2022/08/05 02:16:47;;;;;;;;;;;23.40;55.20;;;;;;5042890;28;86944;-44
2022/08/05 02:19:19;;;;;;;;;;;23.40;55.20;;;;;;5042815;27;87666;-44
2022/08/05 02:22:07;;;;;;;;;;;23.40;55.20;;;;;;5041784;28;89015;-44
2022/08/05 02:24:35;;;;;;;;;;;23.40;55.20;;;;;;5042874;27;87241;-43
2022/08/05 02:27:02;;;;;;;;;;;23.30;55.20;;;;;;5042499;27;88642;-44
2022/08/05 02:29:28;;;;;;;;;;;23.40;55.20;;;;;;5042424;28;87636;-44
2022/08/05 02:31:56;;;;;;;;;;;23.30;55.20;;;;;;5042467;28;87047;-44
2022/08/05 02:34:22;;;;;;;;;;;23.30;55.20;;;;;;5045051;27;88644;-43
2022/08/05 02:36:50;;;;;;;;;;;23.30;55.20;;;;;;5042984;28;87155;-44
2022/08/05 02:39:20;;;;;;;;;;;23.30;55.20;;;;;;5042991;28;88926;-44
2022/08/05 02:41:48;;;;;;;;;;;23.30;55.20;;;;;;5042263;28;88122;-43
2022/08/05 02:44:14;;;;;;;;;;;23.20;55.20;;;;;;5042902;28;87348;-43
2022/08/05 02:46:41;;;;;;;;;;;23.30;55.20;;;;;;5041672;27;88754;-44
2022/08/05 02:49:07;;;;;;;;;;;23.20;55.20;;;;;;5042024;28;89235;-43
2022/08/05 02:51:34;;;;;;;;;;;23.20;55.20;;;;;;5042551;28;87151;-43
2022/08/05 02:54:00;;;;;;;;;;;23.10;55.20;;;;;;5042472;28;87481;-43
2022/08/05 02:56:26;;;;;;;;;;;23.10;55.10;;;;;;5045109;28;87806;-43
2022/08/05 02:58:52;;;;;;;;;;;23.10;55.20;;;;;;5041941;27;87370;-43
2022/08/05 03:01:19;;;;;;;;;;;23.10;55.20;;;;;;5041530;28;88128;-42
2022/08/05 03:03:48;;;;;;;;;;;23.10;55.20;;;;;;5042809;28;86332;-43
2022/08/05 03:06:13;;;;;;;;;;;23.10;55.20;;;;;;5042226;27;88087;-43
2022/08/05 03:08:40;;;;;;;;;;;23.10;55.20;;;;;;5043517;27;88157;-43
2022/08/05 03:11:25;;;;;;;;;;;23.00;55.20;;;;;;5045281;28;87999;-43
2022/08/05 03:13:51;;;;;;;;;;;23.00;55.20;;;;;;5045760;27;88448;-43
2022/08/05 03:16:16;;;;;;;;;;;23.00;55.20;;;;;;5045649;28;87479;-43
2022/08/05 03:18:42;;;;;;;;;;;23.00;55.20;;;;;;5048709;28;86993;-42
2022/08/05 03:21:08;;;;;;;;;;;23.00;55.20;;;;;;5045497;28;87785;-43
2022/08/05 03:23:34;;;;;;;;;;;23.00;55.20;;;;;;5045548;28;87148;-43
2022/08/05 03:26:00;;;;;;;;;;;23.00;55.20;;;;;;5045128;27;87887;-43
2022/08/05 03:28:26;;;;;;;;;;;22.90;55.20;;;;;;5045705;28;87188;-43
2022/08/05 03:30:52;;;;;;;;;;;22.90;55.20;;;;;;5045691;28;86993;-42
2022/08/05 03:33:18;;;;;;;;;;;22.90;55.20;;;;;;5045750;28;87703;-43
2022/08/05 03:35:47;;;;;;;;;;;22.90;55.10;;;;;;5044275;28;90199;-43
2022/08/05 03:38:13;;;;;;;;;;;22.90;55.20;;;;;;5045176;28;87884;-42
2022/08/05 03:40:42;;;;;;;;;;;22.90;55.20;;;;;;5047519;27;89154;-43
2022/08/05 03:43:07;;;;;;;;;;;22.80;55.20;;;;;;5045421;28;87066;-43
2022/08/05 03:45:33;;;;;;;;;;;22.90;55.20;;;;;;5045336;28;87471;-43
2022/08/05 03:47:59;;;;;;;;;;;22.80;55.10;;;;;;5044996;28;87998;-43
2022/08/05 03:50:32;;;;;;;;;;;22.80;55.20;;;;;;5045359;28;87068;-43
2022/08/05 03:53:08;;;;;;;;;;;22.80;55.10;;;;;;5045812;27;87337;-43
2022/08/05 03:55:36;;;;;;;;;;;22.80;55.20;;;;;;5044556;28;89416;-43
2022/08/05 03:58:02;;;;;;;;;;;22.80;55.20;;;;;;5045061;28;87115;-43
2022/08/05 04:00:30;;;;;;;;;;;22.70;55.10;;;;;;5043915;27;88147;-43
2022/08/05 04:02:58;;;;;;;;;;;22.70;55.10;;;;;;5047673;28;87962;-43
2022/08/05 04:05:24;;;;;;;;;;;22.70;55.10;;;;;;5044964;27;89328;-43
2022/08/05 04:07:50;;;;;;;;;;;22.70;55.10;;;;;;5044420;28;87833;-43
2022/08/05 04:10:16;;;;;;;;;;;22.70;55.10;;;;;;5044895;28;87130;-44
2022/08/05 04:12:42;;;;;;;;;;;22.70;55.10;;;;;;5044742;27;87386;-43
2022/08/05 04:15:09;;;;;;;;;;;22.70;55.20;;;;;;5044495;28;88194;-43
2022/08/05 04:17:34;;;;;;;;;;;22.60;55.10;;;;;;5045108;28;86357;-43
2022/08/05 04:20:00;;;;;;;;;;;22.60;55.20;;;;;;5044005;27;87101;-43
2022/08/05 04:22:25;;;;;;;;;;;22.60;55.20;;;;;;5047299;28;87934;-42
2022/08/05 04:24:51;;;;;;;;;;;22.60;55.20;;;;;;5044329;28;87982;-44
2022/08/05 04:27:16;;;;;;;;;;;22.60;55.20;;;;;;5044189;28;88000;-43
2022/08/05 04:29:42;;;;;;;;;;;22.60;55.20;;;;;;5044274;28;87228;-45
2022/08/05 04:32:08;;;;;;;;;;;22.60;55.20;;;;;;5044606;27;87386;-43
2022/08/05 04:34:34;;;;;;;;;;;22.50;55.20;;;;;;5042714;28;89396;-42
2022/08/05 04:36:59;;;;;;;;;;;22.50;55.20;;;;;;5044387;28;87106;-44
2022/08/05 04:39:25;;;;;;;;;;;22.50;55.20;;;;;;5044513;28;87402;-43
2022/08/05 04:41:50;;;;;;;;;;;22.50;55.20;;;;;;5044697;28;87410;-43
2022/08/05 04:44:16;;;;;;;;;;;22.50;55.20;;;;;;5045806;28;87061;-43
2022/08/05 04:46:41;;;;;;;;;;;22.50;55.20;;;;;;5043824;28;87102;-43
2022/08/05 04:49:07;;;;;;;;;;;22.50;55.20;;;;;;5043325;28;88167;-43
2022/08/05 04:51:32;;;;;;;;;;;22.50;55.30;;;;;;5044418;28;88739;-43
2022/08/05 04:53:58;;;;;;;;;;;22.50;55.30;;;;;;5043797;28;88186;-43
2022/08/05 04:56:24;;;;;;;;;;;22.50;55.90;;;;;;5044386;28;87031;-43
2022/08/05 04:58:49;;;;;;;;;;;22.50;55.30;;;;;;5044142;27;87396;-43
2022/08/05 05:01:15;;;;;;;;;;;22.40;55.20;;;;;;5043548;28;88188;-43
2022/08/05 05:03:40;;;;;;;;;;;22.40;55.30;;;;;;5044203;28;87062;-44
2022/08/05 05:06:09;;;;;;;;;;;22.40;55.30;;;;;;5047131;28;86669;-42
2022/08/05 05:08:35;;;;;;;;;;;22.40;55.30;;;;;;5043903;28;87208;-44
2022/08/05 05:11:00;;;;;;;;;;;22.40;55.40;;;;;;5044123;27;87431;-43
2022/08/05 05:13:26;;;;;;;;;;;22.40;55.40;;;;;;5042991;28;88935;-43
2022/08/05 05:15:51;;;;;;;;;;;22.40;55.40;;;;;;5044178;28;87174;-43
2022/08/05 05:18:17;;;;;;;;;;;22.40;55.40;;;;;;5043980;28;87524;-43
2022/08/05 05:20:43;;;;;;;;;;;22.40;55.40;;;;;;5043283;28;89191;-42
2022/08/05 05:23:08;;;;;;;;;;;22.40;55.50;;;;;;5043758;28;87086;-43
2022/08/05 05:25:34;;;;;;;;;;;22.30;56.00;;;;;;5043972;27;87538;-43
2022/08/05 05:27:59;;;;;;;;;;;22.30;55.50;;;;;;5046220;28;88010;-44
2022/08/05 05:30:25;;;;;;;;;;;22.40;55.50;;;;;;5044261;27;87388;-43
2022/08/05 05:32:50;;;;;;;;;;;22.30;55.50;;;;;;5043134;28;88204;-44
2022/08/05 05:35:16;;;;;;;;;;;22.30;55.50;;;;;;5043600;28;86981;-43
2022/08/05 05:37:48;;;;;;;;;;;22.30;55.60;;;;;;5042612;27;88978;-43
2022/08/05 05:40:15;;;;;;;;;;;22.30;55.70;;;;;;5042567;28;87982;-42
2022/08/05 05:42:41;;;;;;;;;;;22.30;55.80;;;;;;5043493;28;87058;-44
2022/08/05 05:45:06;;;;;;;;;;;22.30;55.80;;;;;;5043552;28;87350;-43
2022/08/05 05:47:33;;;;;;;;;;;22.30;55.70;;;;;;5043092;28;88171;-42
2022/08/05 05:49:59;;;;;;;;;;;22.30;55.80;;;;;;5046501;28;87051;-43
2022/08/05 05:52:24;;;;;;;;;;;22.30;55.80;;;;;;5042666;28;89308;-43
2022/08/05 05:54:50;;;;;;;;;;;22.30;55.90;;;;;;5044003;28;86139;-42
2022/08/05 05:57:15;;;;;;;;;;;22.30;55.80;;;;;;5043022;28;86855;-43
2022/08/05 05:59:41;;;;;;;;;;;22.30;55.90;;;;;;5042615;28;88086;-42
2022/08/05 06:02:06;;;;;;;;;;;22.30;55.90;;;;;;5042431;28;88089;-42
2022/08/05 06:04:32;;;;;;;;;;;22.30;56.10;;;;;;5043499;28;88030;-43
2022/08/05 06:06:57;;;;;;;;;;;22.30;56.60;;;;;;5042602;28;87755;-43
2022/08/05 06:09:22;;;;;;;;;;;22.30;56.10;;;;;;5043113;28;86886;-42
2022/08/05 06:11:48;;;;;;;;;;;22.30;56.00;;;;;;5045409;28;87583;-42
2022/08/05 06:14:13;;;;;;;;;;;22.30;56.70;;;;;;5042922;28;87194;-43
2022/08/05 06:16:39;;;;;;;;;;;22.30;56.10;;;;;;5042928;28;87537;-43
2022/08/05 06:19:04;;;;;;;;;;;22.30;56.10;;;;;;5043090;28;87517;-43
2022/08/05 06:21:31;;;;;;;;;;;22.30;56.10;;;;;;5043109;28;87208;-42
2022/08/05 06:23:57;;;;;;;;;;;22.30;56.20;;;;;;5042314;27;88990;-42
2022/08/05 06:26:22;;;;;;;;;;;22.30;56.20;;;;;;5041816;28;89171;-43
2022/08/05 06:28:48;;;;;;;;;;;22.30;56.30;;;;;;5042727;28;87092;-42
2022/08/05 06:31:13;;;;;;;;;;;22.30;56.30;;;;;;5045338;28;88706;-43
2022/08/05 06:33:39;;;;;;;;;;;22.30;56.30;;;;;;5042675;28;87093;-44
2022/08/05 06:36:04;;;;;;;;;;;22.30;56.30;;;;;;5042861;28;87490;-43
2022/08/05 06:38:30;;;;;;;;;;;22.30;56.30;;;;;;5042332;28;88560;-43
2022/08/05 06:40:55;;;;;;;;;;;22.30;56.40;;;;;;5042792;28;87125;-43
2022/08/05 06:43:21;;;;;;;;;;;22.30;56.40;;;;;;5044348;27;87282;-42
2022/08/05 06:45:46;;;;;;;;;;;22.30;56.40;;;;;;5046033;28;88164;-44
2022/08/05 06:48:12;;;;;;;;;;;22.30;56.60;;;;;;5046050;28;87161;-43
2022/08/05 06:50:37;;;;;;;;;;;22.30;56.50;;;;;;5045395;27;88955;-43
2022/08/05 06:53:03;;;;;;;;;;;22.30;56.70;;;;;;5048565;28;87318;-42
2022/08/05 06:55:28;;;;;;;;;;;22.30;56.50;;;;;;5046050;28;87420;-44
2022/08/05 06:57:54;;;;;;;;;;;22.30;57.20;;;;;;5045565;28;88193;-42
2022/08/05 07:00:19;;;;;;;;;;;22.30;56.60;;;;;;5045808;28;87158;-44
2022/08/05 07:02:46;;;;;;;;;;;22.30;56.60;;;;;;5045924;27;89249;-44
2022/08/05 07:05:12;;;;;;;;;;;22.30;56.60;;;;;;5044125;28;91359;-44
2022/08/05 07:07:38;;;;;;;;;;;22.30;56.60;;;;;;5046265;28;86303;-43
2022/08/05 07:10:04;;;;;;;;;;;22.30;56.60;;;;;;5045896;28;86855;-44
2022/08/05 07:17:57;;;;;;;;;;;22.30;56.80;;;;;;5045464;28;87020;-43
2022/08/05 07:20:23;;;;;;;;;;;22.30;56.70;;;;;;5045588;28;87000;-43
2022/08/05 07:22:48;;;;;;;;;;;22.30;56.80;;;;;;5045738;28;87490;-44
2022/08/05 07:25:14;;;;;;;;;;;22.30;56.80;;;;;;5045435;28;88096;-43
2022/08/05 07:27:39;;;;;;;;;;;22.30;56.70;;;;;;5045620;28;87112;-43
2022/08/05 07:30:05;;;;;;;;;;;22.30;56.80;;;;;;5045800;28;87385;-44
2022/08/05 07:32:34;;;;;;;;;;;22.30;57.40;;;;;;5045725;28;87325;-43
2022/08/05 07:34:59;;;;;;;;;;;22.40;56.70;;;;;;5045079;28;87224;-43
2022/08/05 07:37:25;;;;;;;;;;;22.30;56.80;;;;;;5048138;28;87412;-43
2022/08/05 07:39:50;;;;;;;;;;;22.30;56.70;;;;;;5044666;28;88157;-43
2022/08/05 07:42:16;;;;;;;;;;;22.40;57.50;;;;;;5045313;28;88288;-43
2022/08/05 07:44:41;;;;;;;;;;;22.40;56.90;;;;;;5044895;28;88477;-43
2022/08/05 07:47:07;;;;;;;;;;;22.40;56.80;;;;;;5045133;28;87125;-43
2022/08/05 07:49:33;;;;;;;;;;;22.40;56.70;;;;;;5045128;28;87438;-44
2022/08/05 07:51:58;;;;;;;;;;;22.40;56.80;;;;;;5044847;28;88084;-43
2022/08/05 07:54:27;;;;;;;;;;;22.40;56.80;;;;;;5045023;27;87267;-43
2022/08/05 07:56:52;;;;;;;;;;;22.40;56.80;;;;;;5045345;27;87685;-43
2022/08/05 07:59:18;;;;;;;;;;;22.40;56.80;;;;;;5047266;28;87875;-43
2022/08/05 08:01:43;;;;;;;;;;;22.40;56.80;;;;;;5044854;28;87490;-43
2022/08/05 08:04:09;;;;;;;;;;;22.40;56.80;;;;;;5044026;28;89237;-43
2022/08/05 08:06:34;;;;;;;;;;;22.40;56.80;;;;;;5045241;28;87102;-43
2022/08/05 08:09:00;;;;;;;;;;;22.40;56.70;;;;;;5044711;27;88920;-43
2022/08/05 08:11:27;;;;;;;;;;;22.40;56.70;;;;;;5044484;28;87868;-43
2022/08/05 08:13:53;;;;;;;;;;;22.40;56.70;;;;;;5044858;28;87083;-43
2022/08/05 08:16:18;;;;;;;;;;;22.50;56.80;;;;;;5044896;28;87221;-42
2022/08/05 08:18:44;;;;;;;;;;;22.40;56.70;;;;;;5044235;28;88439;-42
2022/08/05 08:21:10;;;;;;;;;;;22.40;56.70;;;;;;5048291;28;86231;-43
2022/08/05 08:23:35;;;;;;;;;;;22.50;56.70;;;;;;5044520;28;88303;-43
2022/08/05 08:26:01;;;;;;;;;;;22.50;56.70;;;;;;5044681;28;87063;-43
2022/08/05 08:28:27;;;;;;;;;;;22.50;56.60;;;;;;5044076;28;87991;-43
2022/08/05 08:30:52;;;;;;;;;;;22.50;56.60;;;;;;5044303;28;88055;-42
2022/08/05 08:33:18;;;;;;;;;;;22.60;56.70;;;;;;5044337;28;88049;-43
2022/08/05 08:35:43;;;;;;;;;;;22.60;56.70;;;;;;5044657;28;86971;-43
2022/08/05 08:38:09;;;;;;;;;;;22.50;56.60;;;;;;5043951;28;89383;-43
2022/08/05 08:40:35;;;;;;;;;;;22.60;56.70;;;;;;5047027;28;87100;-43
2022/08/05 08:43:01;;;;;;;;;;;22.60;56.40;;;;;;5044074;28;87974;-43
2022/08/05 08:45:28;;;;;;;;;;;22.60;56.50;;;;;;5045011;28;86355;-43
2022/08/05 08:47:54;;;;;;;;;;;22.60;56.30;;;;;;5044381;27;86897;-43
2022/08/05 08:50:20;;;;;;;;;;;22.60;56.50;;;;;;5043521;28;88148;-43
2022/08/05 08:52:49;;;;;;;;;;;22.70;56.40;;;;;;5043398;28;88038;-44
2022/08/05 08:55:14;;;;;;;;;;;22.70;56.40;;;;;;5044192;28;88356;-43
2022/08/05 08:57:40;;;;;;;;;;;22.60;56.30;;;;;;5043802;28;88073;-43
2022/08/05 09:00:07;;;;;;;;;;;22.70;56.40;;;;;;5043416;28;87146;-43
2022/08/05 09:02:33;;;;;;;;;;;22.70;56.30;;;;;;5046687;27;88214;-43
2022/08/05 09:04:58;;;;;;;;;;;22.70;56.30;;;;;;5044168;28;87121;-42
2022/08/05 09:07:24;;;;;;;;;;;22.70;56.30;;;;;;5043513;28;87524;-43
2022/08/05 09:09:49;;;;;;;;;;;22.70;56.30;;;;;;5044185;28;86495;-43
2022/08/05 09:12:15;;;;;;;;;;;22.70;56.30;;;;;;5044133;28;87119;-43
2022/08/05 09:14:41;;;;;;;;;;;22.70;56.30;;;;;;5044089;27;87445;-43
2022/08/05 09:17:07;;;;;;;;;;;22.80;56.30;;;;;;5042932;28;89075;-42
2022/08/05 09:19:33;;;;;;;;;;;22.80;56.30;;;;;;5043420;28;87119;-42
2022/08/05 09:21:59;;;;;;;;;;;22.80;56.20;;;;;;5043810;27;87360;-43
2022/08/05 09:24:24;;;;;;;;;;;22.80;56.30;;;;;;5046348;28;89679;-43
2022/08/05 09:26:51;;;;;;;;;;;22.80;56.30;;;;;;5043591;28;87414;-43
2022/08/05 09:29:16;;;;;;;;;;;22.80;56.40;;;;;;5043169;28;89303;-43
2022/08/05 09:31:45;;;;;;;;;;;22.80;56.20;;;;;;5043856;28;87454;-43
2022/08/05 09:34:11;;;;;;;;;;;22.80;56.30;;;;;;5043938;27;87273;-42
2022/08/05 09:36:56;;;;;;;;;;;22.90;56.30;;;;;;5043375;28;88011;-43
2022/08/05 09:39:23;;;;;;;;;;;22.90;56.20;;;;;;5042859;28;87052;-43
2022/08/05 09:41:58;;;;;;;;;;;22.90;56.30;;;;;;5042756;27;89223;-43
2022/08/05 09:44:38;;;;;;;;;;;22.90;56.20;;;;;;5042944;28;88687;-44
2022/08/05 09:47:09;;;;;;;;;;;22.90;56.10;;;;;;5046244;28;87089;-43
2022/08/05 09:49:39;;;;;;;;;;;23.00;56.10;;;;;;5042943;28;88080;-43
2022/08/05 09:52:40;;;;;;;;;;;23.00;56.10;;;;;;5043197;28;86862;-43
2022/08/05 09:55:07;;;;;;;;;;;23.00;56.00;;;;;;5000730;28;87319;-43
2022/08/05 09:57:38;;;;;;;;;;;23.00;56.00;;;;;;5034126;27;89904;-45
2022/08/05 10:00:10;;;;;;;;;;;23.10;56.00;;;;;;5042547;28;86386;-44
2022/08/05 10:02:43;;;;;;;;;;;23.10;56.00;;;;;;5043367;27;86927;-43
2022/08/05 10:05:10;;;;;;;;;;;23.10;55.80;;;;;;5042825;28;87985;-43
2022/08/05 10:07:48;;;;;;;;;;;23.20;55.90;;;;;;5041904;28;88130;-43
2022/08/05 10:10:14;;;;;;;;;;;23.20;55.80;;;;;;5045779;28;87314;-43
2022/08/05 10:12:40;;;;;;;;;;;23.20;55.80;;;;;;5042836;28;87077;-43
2022/08/05 10:15:32;;;;;;;;;;;23.20;55.80;;;;;;5042877;27;88282;-43
2022/08/05 10:18:01;;;;;;;;;;;23.20;55.80;;;;;;5038772;27;88238;-43
2022/08/05 10:20:27;;;;;;;;;;;23.20;55.70;;;;;;5042750;28;86917;-43
2022/08/05 10:22:52;;;;;;;;;;;23.30;55.60;;;;;;5042965;27;87423;-43
2022/08/05 10:25:18;;;;;;;;;;;23.30;56.00;;;;;;5043130;28;89020;-44
2022/08/05 10:27:45;;;;;;;;;;;23.30;55.60;;;;;;5041343;28;87153;-43
2022/08/05 10:30:10;;;;;;;;;;;23.30;55.40;;;;;;5045334;27;87386;-45
2022/08/05 10:32:35;;;;;;;;;;;23.40;55.30;;;;;;5042047;28;88018;-44
2022/08/05 10:35:01;;;;;;;;;;;23.40;55.50;;;;;;5042749;28;88432;-43
2022/08/05 10:37:29;;;;;;;;;;;23.40;55.50;;;;;;5042240;28;88211;-43
2022/08/05 10:39:57;;;;;;;;;;;23.40;55.40;;;;;;5042547;28;87052;-43
2022/08/05 10:42:23;;;;;;;;;;;23.40;55.20;;;;;;5042752;28;86835;-43
2022/08/05 10:44:49;;;;;;;;;;;23.40;55.20;;;;;;5042052;28;88989;-43
2022/08/05 10:47:16;;;;;;;;;;;23.50;55.20;;;;;;5042448;28;87279;-44
2022/08/05 10:50:01;;;;;;;;;;;23.50;55.30;;;;;;5042847;27;88651;-43
2022/08/05 10:52:43;;;;;;;;;;;23.50;55.30;;;;;;5045069;28;86944;-43
2022/08/05 10:55:10;;;;;;;;;;;23.50;55.10;;;;;;5042264;27;88754;-43
2022/08/05 10:57:38;;;;;;;;;;;23.50;55.20;;;;;;5040855;28;90327;-43
2022/08/05 11:00:06;;;;;;;;;;;23.60;55.00;;;;;;5041304;28;87207;-43
2022/08/05 11:02:32;;;;;;;;;;;23.60;55.20;;;;;;5042310;27;88770;-43
2022/08/05 11:04:58;;;;;;;;;;;23.60;55.20;;;;;;5042174;28;87981;-43
2022/08/05 11:07:23;;;;;;;;;;;23.60;55.00;;;;;;5042271;28;87226;-43
2022/08/05 11:09:50;;;;;;;;;;;23.60;55.00;;;;;;5042411;28;87718;-43
2022/08/05 11:12:39;;;;;;;;;;;23.70;55.00;;;;;;5041613;28;88466;-43
2022/08/05 11:15:14;;;;;;;;;;;23.70;55.10;;;;;;5045493;28;86219;-43
2022/08/05 11:17:40;;;;;;;;;;;23.70;55.00;;;;;;5042109;28;88310;-43
2022/08/05 11:20:06;;;;;;;;;;;23.70;54.70;;;;;;5042278;28;87104;-43
2022/08/05 11:22:38;;;;;;;;;;;23.70;54.90;;;;;;5041992;27;88071;-44
2022/08/05 11:25:21;;;;;;;;;;;23.80;55.00;;;;;;5041762;28;87819;-43
2022/08/05 11:27:47;;;;;;;;;;;23.80;55.00;;;;;;5042085;27;87036;-43
2022/08/05 11:30:12;;;;;;;;;;;23.80;54.60;;;;;;5043058;28;90834;-44
2022/08/05 11:32:38;;;;;;;;;;;23.80;54.40;;;;;;5045098;28;88195;-42
2022/08/05 11:35:04;;;;;;;;;;;23.90;55.50;;;;;;5045420;28;87245;-45
2022/08/05 11:37:38;;;;;;;;;;;23.90;54.70;;;;;;5047896;27;87069;-43
2022/08/05 11:40:04;;;;;;;;;;;23.90;54.70;;;;;;5045650;28;86319;-43
2022/08/05 11:42:31;;;;;;;;;;;23.90;54.60;;;;;;5045238;27;88675;-43
2022/08/05 11:45:02;;;;;;;;;;;24.00;54.70;;;;;;5044837;28;89721;-43
2022/08/05 11:47:28;;;;;;;;;;;24.00;54.50;;;;;;5044491;28;88090;-44
2022/08/05 11:49:57;;;;;;;;;;;24.00;54.60;;;;;;5045016;27;88301;-43
2022/08/05 11:52:26;;;;;;;;;;;24.00;54.50;;;;;;5044738;28;89436;-43
2022/08/05 11:54:52;;;;;;;;;;;24.10;54.50;;;;;;5045193;28;86958;-43
2022/08/05 11:57:18;;;;;;;;;;;24.10;54.40;;;;;;5045269;27;87376;-43
2022/08/05 11:59:44;;;;;;;;;;;24.10;54.50;;;;;;5047072;28;88156;-44
2022/08/05 12:02:09;;;;;;;;;;;24.10;54.50;;;;;;5045114;28;88020;-43
2022/08/05 12:04:39;;;;;;;;;;;24.10;54.40;;;;;;5045124;28;87352;-43
2022/08/05 12:07:08;;;;;;;;;;;24.10;54.40;;;;;;5044782;28;87092;-43
2022/08/05 12:09:38;;;;;;;;;;;24.20;54.50;;;;;;5045018;28;88080;-43
2022/08/05 12:12:04;;;;;;;;;;;24.20;54.20;;;;;;5043963;28;88854;-44
2022/08/05 12:14:40;;;;;;;;;;;24.20;54.30;;;;;;5045178;28;88138;-43
2022/08/05 12:17:10;;;;;;;;;;;24.20;54.10;;;;;;5044648;28;87439;-43
2022/08/05 12:19:43;;;;;;;;;;;24.20;54.00;;;;;;5044563;28;88197;-43
2022/08/05 12:22:09;;;;;;;;;;;24.30;53.80;;;;;;5047825;28;87120;-43
2022/08/05 12:24:39;;;;;;;;;;;24.30;54.90;;;;;;5044082;28;89654;-45
2022/08/05 12:27:04;;;;;;;;;;;24.30;54.20;;;;;;5044358;28;86983;-44
2022/08/05 12:29:30;;;;;;;;;;;24.30;54.20;;;;;;5045205;27;87477;-43
2022/08/05 12:31:57;;;;;;;;;;;24.30;53.90;;;;;;5044168;28;88176;-44
2022/08/05 12:34:27;;;;;;;;;;;24.40;54.00;;;;;;5044528;28;87090;-44
2022/08/05 12:36:53;;;;;;;;;;;24.40;54.00;;;;;;5043791;27;88416;-44
2022/08/05 12:39:19;;;;;;;;;;;24.40;54.00;;;;;;5044029;28;88097;-44
2022/08/05 12:41:45;;;;;;;;;;;24.40;54.10;;;;;;5046428;27;87086;-43
2022/08/05 12:44:11;;;;;;;;;;;24.40;54.10;;;;;;5043980;28;88255;-43
2022/08/05 12:46:38;;;;;;;;;;;24.40;53.70;;;;;;5044301;28;86924;-43
2022/08/05 12:49:07;;;;;;;;;;;24.50;54.00;;;;;;5044037;27;87062;-43
2022/08/05 12:51:56;;;;;;;;;;;24.50;54.00;;;;;;5044055;28;87806;-44
2022/08/05 12:54:26;;;;;;;;;;;24.50;53.90;;;;;;5044624;28;86292;-44
2022/08/05 12:56:52;;;;;;;;;;;24.60;54.40;;;;;;5044016;27;89430;-43
2022/08/05 12:59:19;;;;;;;;;;;24.60;53.80;;;;;;5043526;28;87947;-43
2022/08/05 13:01:54;;;;;;;;;;;24.60;53.70;;;;;;5043176;28;88153;-43
2022/08/05 13:04:20;;;;;;;;;;;24.60;53.80;;;;;;5046490;28;90005;-43
2022/08/05 13:06:45;;;;;;;;;;;24.60;53.80;;;;;;5043972;28;86849;-43
2022/08/05 13:09:12;;;;;;;;;;;24.70;53.50;;;;;;5044094;27;87410;-43
2022/08/05 13:11:41;;;;;;;;;;;24.70;53.60;;;;;;5043483;28;88186;-44
2022/08/05 13:14:10;;;;;;;;;;;24.70;53.30;;;;;;5043930;28;87119;-43
2022/08/05 13:16:49;;;;;;;;;;;24.80;53.60;;;;;;5043873;27;88730;-43
2022/08/05 13:19:15;;;;;;;;;;;24.80;53.40;;;;;;5043553;28;87473;-43
2022/08/05 13:21:40;;;;;;;;;;;24.80;53.40;;;;;;5043627;28;86983;-43
2022/08/05 13:24:06;;;;;;;;;;;24.80;53.30;;;;;;5043615;27;87580;-43
2022/08/05 13:26:32;;;;;;;;;;;24.90;53.40;;;;;;5045765;28;89001;-43
2022/08/05 13:28:58;;;;;;;;;;;24.90;53.30;;;;;;5043493;27;89336;-44
2022/08/05 13:31:23;;;;;;;;;;;24.90;53.20;;;;;;5043496;28;88289;-43
2022/08/05 13:33:48;;;;;;;;;;;24.90;53.90;;;;;;5043661;28;87320;-43
2022/08/05 13:36:14;;;;;;;;;;;25.00;53.30;;;;;;5043767;28;87492;-43
2022/08/05 13:38:39;;;;;;;;;;;25.00;53.10;;;;;;5043067;28;88136;-44
2022/08/05 13:41:05;;;;;;;;;;;25.00;53.10;;;;;;5043584;28;86979;-45
2022/08/05 13:43:30;;;;;;;;;;;25.10;53.10;;;;;;5044272;28;87360;-43
2022/08/05 13:45:56;;;;;;;;;;;25.10;53.00;;;;;;5043296;28;88193;-43
2022/08/05 13:48:21;;;;;;;;;;;25.10;53.00;;;;;;5046257;28;87221;-43
2022/08/05 13:50:47;;;;;;;;;;;25.20;52.90;;;;;;5042567;28;88992;-43
2022/08/05 13:53:12;;;;;;;;;;;25.20;52.90;;;;;;5043373;28;87176;-43
2022/08/05 13:55:38;;;;;;;;;;;25.20;52.70;;;;;;5043315;28;87251;-43
2022/08/05 13:58:03;;;;;;;;;;;25.20;53.50;;;;;;5042884;28;88030;-43
2022/08/05 14:00:29;;;;;;;;;;;25.30;52.80;;;;;;5042733;28;87106;-43
2022/08/05 14:02:55;;;;;;;;;;;25.30;52.50;;;;;;5043022;27;88981;-43
2022/08/05 14:05:21;;;;;;;;;;;25.30;52.50;;;;;;5042747;28;89248;-43
2022/08/05 14:07:46;;;;;;;;;;;25.30;52.50;;;;;;5043857;28;86385;-44
2022/08/05 14:10:12;;;;;;;;;;;25.40;52.50;;;;;;5045469;27;87990;-43
2022/08/05 14:12:38;;;;;;;;;;;25.40;52.40;;;;;;5043222;28;87075;-42
2022/08/05 14:15:04;;;;;;;;;;;25.40;52.30;;;;;;5042441;28;88017;-44
2022/08/05 14:17:29;;;;;;;;;;;25.40;52.40;;;;;;5042619;28;88492;-43
2022/08/05 14:19:55;;;;;;;;;;;25.50;52.40;;;;;;5043144;28;86928;-44
2022/08/05 14:22:20;;;;;;;;;;;25.50;52.40;;;;;;5043161;27;87520;-42